Time;durP1;ratioP1;P1;durP2;ratioP2;P2;SDS_P1;SDS_P2;PMS_P1;PMS_P2;Temp;Humidity;BMP_temperature;BMP_pressure;BME280_temperature;BME280_humidity;BME280_pressure;Samples;Min_cycle;Max_cycle;Signal;HPM_P1;HPM_P2
2022/05/13 00:01:46;;;;;;;8.43;1.08;;;;;;;15.71;58.98;100895.81;5032978;28;20041;-82
2022/05/13 00:04:11;;;;;;;6.57;0.98;;;;;;;15.81;59.30;100899.41;5033025;28;20112;-82
2022/05/13 00:06:38;;;;;;;7.32;1.08;;;;;;;15.48;60.40;100909.09;5033286;28;20045;-82
2022/05/13 00:09:04;;;;;;;6.93;0.90;;;;;;;15.72;59.93;100902.78;5033189;28;20109;-82
2022/05/13 00:11:30;;;;;;;7.03;1.17;;;;;;;15.69;59.83;100897.75;5032784;28;20096;-82
2022/05/13 00:13:56;;;;;;;7.47;1.20;;;;;;;15.65;60.01;100897.97;5033097;28;20531;-82
2022/05/13 00:16:22;;;;;;;9.23;1.10;;;;;;;15.82;59.63;100904.59;5032778;28;20017;-82
2022/05/13 00:18:47;;;;;;;4.95;0.98;;;;;;;15.47;60.42;100902.97;5031507;28;20029;-82
2022/05/13 00:21:12;;;;;;;10.73;1.67;;;;;;;15.21;60.95;100910.34;5032881;28;20057;-82
2022/05/13 00:23:38;;;;;;;5.28;1.00;;;;;;;15.49;60.42;100910.78;5032963;28;20108;-82
2022/05/13 00:26:03;;;;;;;2.97;1.05;;;;;;;15.61;59.89;100911.59;5032714;28;20049;-82
2022/05/13 00:28:29;;;;;;;9.23;1.55;;;;;;;15.55;60.37;100905.00;5031551;28;20033;-81
2022/05/13 00:30:54;;;;;;;11.50;1.27;;;;;;;15.38;61.07;100901.06;5032966;28;20187;-82
2022/05/13 00:33:20;;;;;;;4.72;1.00;;;;;;;15.54;60.42;100897.16;5032813;28;20099;-82
2022/05/13 00:35:47;;;;;;;9.32;1.33;;;;;;;15.39;60.92;100896.63;5032550;28;20099;-82
2022/05/13 00:38:12;;;;;;;6.40;1.23;;;;;;;15.44;61.04;100895.28;5032438;28;20056;-82
2022/05/13 00:40:39;;;;;;;6.25;1.35;;;;;;;15.54;60.78;100894.53;5032527;28;20017;-82
2022/05/13 00:43:07;;;;;;;4.20;1.13;;;;;;;15.58;60.47;100895.94;5032444;28;20034;-82
2022/05/13 00:45:33;;;;;;;7.15;1.30;;;;;;;15.38;61.02;100890.50;5032316;28;20395;-82
2022/05/13 00:48:00;;;;;;;6.93;1.23;;;;;;;15.45;61.12;100910.19;5032155;28;20026;-82
2022/05/13 00:50:27;;;;;;;8.70;1.80;;;;;;;15.06;62.27;100891.22;5032452;28;20044;-82
2022/05/13 00:52:53;;;;;;;7.00;2.10;;;;;;;15.03;62.67;100895.94;5032411;28;20071;-82
2022/05/13 00:55:33;;;;;;;7.95;2.17;;;;;;;15.41;61.19;100892.03;5032159;28;20025;-82
2022/05/13 00:58:00;;;;;;;6.60;1.20;;;;;;;15.17;62.17;100897.50;5032523;28;20040;-82
2022/05/13 01:00:26;;;;;;;13.85;1.67;;;;;;;14.99;62.67;100894.50;5032423;28;20472;-82
2022/05/13 01:02:51;;;;;;;10.70;1.45;;;;;;;15.24;62.11;100896.03;5032168;28;20030;-82
2022/05/13 01:05:18;;;;;;;6.38;1.42;;;;;;;15.37;61.63;100898.53;5032131;28;20104;-82
2022/05/13 01:07:44;;;;;;;8.30;1.85;;;;;;;15.19;61.94;100887.63;5047486;28;20025;-82
2022/05/13 01:10:23;;;;;;;8.95;1.67;;;;;;;14.74;63.08;100896.41;5032017;28;20380;-82
2022/05/13 01:12:54;;;;;;;14.85;1.90;;;;;;;14.47;64.17;100899.34;5031903;28;20395;-82
2022/05/13 01:15:34;;;;;;;15.05;2.95;;;;;;;14.73;63.59;100888.59;5031907;28;20029;-82
2022/05/13 01:18:05;;;;;;;10.63;1.83;;;;;;;14.75;63.33;100886.66;5030650;28;20510;-82
2022/05/13 01:20:51;;;;;;;8.15;1.42;;;;;;;14.60;64.16;100884.28;5032031;28;20025;-82
2022/05/13 01:23:30;;;;;;;15.80;2.08;;;;;;;14.57;63.93;100884.50;5031672;28;20116;-82
2022/05/13 01:26:07;;;;;;;15.05;2.60;;;;;;;14.70;63.80;100878.28;5032016;28;20108;-82
2022/05/13 01:28:42;;;;;;;11.88;2.58;;;;;;;14.60;63.74;100878.16;5031681;28;20099;-82
2022/05/13 01:31:11;;;;;;;17.00;1.92;;;;;;;14.56;64.08;100882.81;5031685;28;20018;-82
2022/05/13 01:33:38;;;;;;;11.10;2.10;;;;;;;14.58;63.85;100875.63;5031732;28;20030;-82
2022/05/13 01:36:05;;;;;;;15.15;2.42;;;;;;;14.53;64.38;100876.91;5031769;28;20109;-82
2022/05/13 01:38:35;;;;;;;15.57;2.05;;;;;;;14.44;64.83;100878.47;5032032;28;20033;-82
2022/05/13 01:41:02;;;;;;;10.07;1.63;;;;;;;14.61;64.32;100875.41;5031900;28;20025;-82
2022/05/13 01:43:29;;;;;;;16.20;2.20;;;;;;;14.17;65.84;100870.81;5032097;28;20024;-82
2022/05/13 01:45:55;;;;;;;13.73;2.13;;;;;;;14.41;64.94;100868.94;5031743;28;20025;-82
2022/05/13 01:48:21;;;;;;;20.10;2.78;;;;;;;14.46;64.78;100856.22;5031532;28;20151;-82
2022/05/13 01:50:47;;;;;;;19.80;4.47;;;;;;;14.54;64.63;100854.81;5031683;28;20056;-82
2022/05/13 01:53:12;;;;;;;16.42;3.28;;;;;;;14.35;65.15;100852.72;5031658;28;20017;-82
2022/05/13 01:55:42;;;;;;;15.90;2.80;;;;;;;14.26;65.71;100865.69;5031389;28;20391;-82
2022/05/13 01:58:11;;;;;;;17.88;2.17;;;;;;;14.29;65.62;100860.16;5030287;28;20029;-82
2022/05/13 02:00:37;;;;;;;11.43;2.80;;;;;;;14.43;65.07;100856.47;5031684;28;20032;-82
2022/05/13 02:05:47;;;;;;;12.80;2.03;;;;;;;14.24;65.72;100867.59;5031628;28;20407;-82
2022/05/13 02:08:12;;;;;;;11.75;2.03;;;;;;;14.47;65.27;100865.00;5029479;28;20026;-82
2022/05/13 02:10:37;;;;;;;10.13;2.20;;;;;;;14.79;64.15;100872.25;5031682;28;20498;-82
2022/05/13 02:13:03;;;;;;;12.30;2.25;;;;;;;14.58;64.72;100872.97;5031372;28;20029;-82
2022/05/13 02:15:28;;;;;;;13.77;2.72;;;;;;;14.77;64.39;100874.19;5031311;28;20112;-81
2022/05/13 02:17:53;;;;;;;15.35;2.33;;;;;;;14.73;64.33;100878.88;5059749;28;20040;-81
2022/05/13 02:20:18;;;;;;;19.42;2.28;;;;;;;14.64;64.75;100875.13;5051420;28;20018;-81
2022/05/13 02:22:44;;;;;;;15.65;2.60;;;;;;;14.78;64.30;100886.44;5051143;28;20021;-81
2022/05/13 02:25:10;;;;;;;12.38;2.47;;;;;;;14.56;65.11;100876.66;5051310;28;20049;-83
2022/05/13 02:27:35;;;;;;;19.85;3.20;;;;;;;14.57;64.79;100881.00;5052015;28;20104;-81
2022/05/13 02:30:00;;;;;;;16.98;2.90;;;;;;;14.63;64.81;100878.75;5055004;28;20052;-82
2022/05/13 02:32:26;;;;;;;12.68;1.92;;;;;;;14.70;64.82;100867.72;5055113;28;20078;-82
2022/05/13 02:34:51;;;;;;;14.25;1.85;;;;;;;14.74;64.56;100874.44;5055146;28;20387;-82
2022/05/13 02:37:16;;;;;;;15.82;1.80;;;;;;;14.64;64.69;100875.13;5055149;28;20025;-82
2022/05/13 02:39:42;;;;;;;16.67;2.55;;;;;;;14.60;65.10;100871.06;5055031;28;20051;-82
2022/05/13 02:42:07;;;;;;;11.75;1.80;;;;;;;14.71;64.64;100869.38;5053333;28;20059;-82
2022/05/13 02:44:33;;;;;;;15.43;2.35;;;;;;;14.82;64.34;100874.66;5054819;28;20039;-82
2022/05/13 02:46:58;;;;;;;12.15;2.08;;;;;;;14.84;64.34;100876.22;5045634;28;20368;-82
2022/05/13 02:49:23;;;;;;;13.43;2.97;;;;;;;14.63;64.79;100870.84;5034597;28;20498;-82
2022/05/13 02:51:50;;;;;;;14.02;2.20;;;;;;;14.77;64.69;100875.03;5034350;28;20480;-82
2022/05/13 02:54:16;;;;;;;11.73;2.50;;;;;;;14.79;64.10;100874.91;5034405;28;20033;-82
2022/05/13 02:56:43;;;;;;;8.88;2.67;;;;;;;14.85;63.80;100874.44;5034549;28;20022;-82
2022/05/13 02:59:08;;;;;;;11.32;2.50;;;;;;;14.86;64.18;100874.31;5034363;28;20060;-82
2022/05/13 03:01:34;;;;;;;7.28;1.50;;;;;;;14.67;64.59;100861.69;5034472;28;20053;-82
2022/05/13 03:04:00;;;;;;;12.50;2.13;;;;;;;14.80;63.78;100861.56;5034287;28;20044;-82
2022/05/13 03:06:25;;;;;;;12.63;2.33;;;;;;;14.83;64.03;100865.75;5034157;28;20434;-82
2022/05/13 03:08:52;;;;;;;13.38;2.30;;;;;;;14.77;64.70;100871.53;5034308;28;20026;-82
2022/05/13 03:11:20;;;;;;;12.50;2.67;;;;;;;14.66;65.49;100873.22;5034018;28;20046;-82
2022/05/13 03:13:46;;;;;;;21.17;2.95;;;;;;;14.71;65.55;100870.25;5034079;28;20520;-82
2022/05/13 03:16:19;;;;;;;12.43;2.65;;;;;;;14.70;65.83;100880.91;5033714;28;20395;-82
2022/05/13 03:18:52;;;;;;;15.98;2.53;;;;;;;14.70;66.54;100878.28;5034149;28;20035;-83
2022/05/13 03:21:18;;;;;;;17.45;3.25;;;;;;;14.43;67.35;100879.41;5034546;28;20019;-81
2022/05/13 03:23:43;;;;;;;16.85;2.90;;;;;;;14.84;66.20;100875.38;5034022;28;20028;-82
2022/05/13 03:26:10;;;;;;;20.40;3.42;;;;;;;15.40;64.67;100877.97;5033923;28;20053;-82
2022/05/13 03:28:36;;;;;;;10.75;2.65;;;;;;;15.32;64.44;100880.38;5034082;28;20049;-81
2022/05/13 03:31:02;;;;;;;25.33;4.13;;;;;;;15.30;64.54;100882.31;5033818;28;20491;-81
2022/05/13 03:33:27;;;;;;;9.63;2.42;;;;;;;15.20;64.30;100879.56;5033562;28;20052;-81
2022/05/13 03:35:53;;;;;;;18.88;3.75;;;;;;;15.57;63.75;100883.69;5033638;28;20055;-81
2022/05/13 03:38:18;;;;;;;19.17;3.15;;;;;;;15.55;63.72;100880.34;5033827;28;20030;-81
2022/05/13 03:40:46;;;;;;;17.77;4.22;;;;;;;15.26;64.94;100886.16;5033107;28;20064;-81
2022/05/13 03:43:12;;;;;;;30.38;4.35;;;;;;;15.43;64.79;100885.66;5033593;28;20021;-81
2022/05/13 03:45:37;;;;;;;17.20;2.75;;;;;;;15.37;64.68;100872.09;5033453;28;20039;-81
2022/05/13 03:48:04;;;;;;;18.15;2.80;;;;;;;15.51;64.24;100889.50;5033518;28;20116;-82
2022/05/13 03:50:30;;;;;;;20.15;3.47;;;;;;;15.27;65.02;100878.13;5033636;28;20032;-82
2022/05/13 03:52:55;;;;;;;18.00;3.03;;;;;;;15.50;64.36;100882.50;5033576;28;20399;-82
2022/05/13 03:55:21;;;;;;;20.10;3.33;;;;;;;15.68;63.86;100881.03;5032186;28;20116;-82
2022/05/13 03:57:46;;;;;;;19.70;3.30;;;;;;;15.66;64.02;100885.59;5033418;28;20056;-82
2022/05/13 04:00:13;;;;;;;20.20;3.60;;;;;;;15.75;63.95;100890.16;5032142;28;20052;-82
2022/05/13 04:02:39;;;;;;;18.42;2.85;;;;;;;15.00;65.71;100881.16;5033168;28;20033;-82
2022/05/13 04:10:34;;;;;;;17.85;3.63;;;;;;;15.83;63.28;100884.25;5033087;28;20116;-82
2022/05/13 04:18:28;;;;;;;16.08;3.30;;;;;;;15.50;64.52;100887.81;5032875;28;20454;-82
2022/05/13 04:20:53;;;;;;;19.48;3.92;;;;;;;15.41;64.83;100887.59;5032811;28;20022;-82
2022/05/13 04:23:19;;;;;;;18.70;3.20;;;;;;;15.79;63.67;100880.16;5032689;28;20424;-82
2022/05/13 04:25:45;;;;;;;19.10;3.15;;;;;;;15.71;64.26;100880.75;5032809;28;20026;-82
2022/05/13 04:28:11;;;;;;;13.55;2.45;;;;;;;15.68;64.21;100883.66;5033365;28;20018;-82
2022/05/13 04:30:36;;;;;;;15.93;3.30;;;;;;;15.79;63.93;100877.50;5032815;28;20036;-82
2022/05/13 04:33:02;;;;;;;20.55;3.88;;;;;;;15.56;64.65;100882.88;5032519;28;20053;-82
2022/05/13 04:35:28;;;;;;;14.38;2.88;;;;;;;15.72;64.42;100877.16;5032627;28;20030;-82
2022/05/13 04:37:53;;;;;;;13.52;3.05;;;;;;;15.84;63.88;100884.13;5032589;28;20108;-82
2022/05/13 04:40:18;;;;;;;20.17;3.55;;;;;;;15.79;64.25;100872.22;5032373;28;20024;-82
2022/05/13 04:42:50;;;;;;;22.83;4.18;;;;;;;15.93;63.66;100879.03;5032480;28;20029;-82
2022/05/13 04:45:23;;;;;;;24.42;4.28;;;;;;;15.64;64.42;100877.78;5047600;28;20037;-82
2022/05/13 04:50:33;;;;;;;16.60;4.07;;;;;;;15.72;64.66;100886.88;5031892;28;20458;-82
2022/05/13 04:52:58;;;;;;;22.05;5.40;;;;;;;15.70;64.34;100889.69;5031607;28;20022;-82
2022/05/13 04:55:25;;;;;;;21.70;4.13;;;;;;;15.56;65.16;100884.66;5031993;28;20519;-82
2022/05/13 04:57:51;;;;;;;25.35;3.33;;;;;;;15.44;65.20;100873.25;5032302;28;20037;-82
2022/05/13 05:00:17;;;;;;;11.38;2.67;;;;;;;15.84;64.16;100870.03;5032311;28;20084;-82
2022/05/13 05:02:42;;;;;;;18.77;3.78;;;;;;;15.49;65.00;100886.13;5032189;28;20021;-82
2022/05/13 05:05:07;;;;;;;13.80;2.13;;;;;;;15.29;65.68;100878.00;5032044;28;20064;-82
2022/05/13 05:07:33;;;;;;;29.63;4.35;;;;;;;15.32;65.87;100876.91;5032064;28;20025;-82
2022/05/13 05:09:58;;;;;;;16.85;2.70;;;;;;;15.23;66.18;100886.44;5032110;28;20041;-82
2022/05/13 05:12:23;;;;;;;22.05;2.50;;;;;;;14.91;67.01;100881.03;5031993;28;20533;-82
2022/05/13 05:14:49;;;;;;;17.10;2.83;;;;;;;14.87;67.61;100880.44;5032199;28;20514;-82
2022/05/13 05:17:14;;;;;;;15.88;3.03;;;;;;;15.42;66.22;100881.34;5031706;28;20482;-82
2022/05/13 05:19:39;;;;;;;19.67;3.33;;;;;;;15.24;66.84;100869.56;5032060;28;20025;-82
2022/05/13 05:22:05;;;;;;;13.00;3.33;;;;;;;14.91;67.00;100876.59;5030536;28;20510;-81
2022/05/13 05:24:31;;;;;;;20.15;2.60;;;;;;;15.42;65.89;100891.94;5030783;28;20414;-82
2022/05/13 05:26:57;;;;;;;21.67;3.10;;;;;;;15.17;66.63;100897.50;5031855;28;20022;-82
2022/05/13 05:29:23;;;;;;;24.88;2.92;;;;;;;15.21;66.49;100877.78;5031722;28;20511;-82
2022/05/13 05:31:48;;;;;;;17.30;2.45;;;;;;;15.14;66.94;100887.97;5031684;28;20021;-82
2022/05/13 05:34:16;;;;;;;13.93;2.63;;;;;;;15.48;65.48;100901.16;5031855;28;20025;-82
2022/05/13 05:36:42;;;;;;;12.32;2.50;;;;;;;15.60;65.33;100894.88;5030823;28;20502;-82
2022/05/13 05:39:07;;;;;;;18.15;3.25;;;;;;;15.37;66.43;100902.03;5031874;28;20033;-82
2022/05/13 05:41:33;;;;;;;12.18;2.55;;;;;;;15.24;66.55;100896.03;5031495;28;20021;-82
2022/05/13 05:43:58;;;;;;;18.67;3.03;;;;;;;15.32;65.97;100890.97;5030549;28;20553;-82
2022/05/13 05:46:23;;;;;;;19.88;2.78;;;;;;;15.15;67.14;100910.00;5042594;28;20040;-82
2022/05/13 05:48:48;;;;;;;14.52;2.50;;;;;;;15.13;66.96;100901.34;5048448;28;20031;-82
2022/05/13 05:51:14;;;;;;;20.98;3.03;;;;;;;15.60;65.44;100915.19;5044919;28;20025;-81
2022/05/13 05:59:08;;;;;;;15.55;2.20;;;;;;;15.71;65.09;100909.03;5026230;28;20048;-82
2022/05/13 06:01:33;;;;;;;16.95;3.20;;;;;;;15.83;65.44;100908.91;5026372;28;20025;-82
2022/05/13 06:03:59;;;;;;;16.98;3.25;;;;;;;15.68;65.13;100918.09;5029278;28;20025;-82
2022/05/13 06:06:25;;;;;;;18.15;3.28;;;;;;;15.63;65.34;100925.53;5030371;28;20026;-81
2022/05/13 06:08:54;;;;;;;19.27;2.60;;;;;;;15.68;65.05;100923.38;5030559;28;20480;-82
2022/05/13 06:11:19;;;;;;;19.08;2.55;;;;;;;15.86;64.95;100919.25;5028326;28;20071;-81
2022/05/13 06:13:45;;;;;;;20.30;3.10;;;;;;;16.05;63.53;100915.94;5029940;28;20068;-82
2022/05/13 06:16:10;;;;;;;15.43;3.30;;;;;;;15.73;64.46;100921.22;5029673;28;20041;-82
2022/05/13 06:18:37;;;;;;;28.33;3.95;;;;;;;15.82;64.09;100917.81;5029802;28;20029;-82
2022/05/13 06:21:03;;;;;;;18.80;2.75;;;;;;;16.21;63.35;100920.78;5029044;28;20537;-82
2022/05/13 06:23:28;;;;;;;15.82;2.67;;;;;;;16.43;62.83;100927.78;5029320;28;20033;-82
2022/05/13 06:25:54;;;;;;;15.75;2.88;;;;;;;16.17;63.56;100927.31;5029236;28;20096;-82
2022/05/13 06:28:19;;;;;;;13.70;2.53;;;;;;;16.19;63.25;100932.47;5029132;28;20030;-82
2022/05/13 06:30:44;;;;;;;20.08;3.00;;;;;;;16.16;63.38;100922.16;5027878;28;20099;-82
2022/05/13 06:33:10;;;;;;;11.38;3.40;;;;;;;16.43;62.62;100932.25;5028814;28;20044;-82
2022/05/13 06:35:35;;;;;;;14.35;2.50;;;;;;;16.72;61.43;100935.06;5028699;28;20133;-81
2022/05/13 06:38:01;;;;;;;16.23;2.97;;;;;;;16.61;61.67;100928.03;5025207;28;20061;-80
2022/05/13 06:40:27;;;;;;;17.08;2.58;;;;;;;16.56;62.49;100924.09;5027914;28;20501;-81
2022/05/13 06:42:53;;;;;;;19.15;2.88;;;;;;;16.54;62.12;100932.16;5029179;28;20027;-81
2022/05/13 06:45:19;;;;;;;17.58;3.00;;;;;;;17.44;59.57;100931.47;5043613;28;20528;-80
2022/05/13 06:47:44;;;;;;;17.60;2.55;;;;;;;17.16;60.15;100917.16;5029085;28;20044;-81
2022/05/13 06:50:16;;;;;;;13.70;2.45;;;;;;;17.60;59.56;100932.78;5028693;28;20403;-81
2022/05/13 06:52:41;;;;;;;18.92;2.90;;;;;;;17.97;58.24;100926.81;5026333;28;20032;-81
2022/05/13 06:55:07;;;;;;;16.02;3.17;;;;;;;18.15;57.39;100919.81;5027949;28;20411;-84
2022/05/13 06:57:33;;;;;;;16.20;3.75;;;;;;;18.52;56.32;100928.84;5027992;28;20045;-83
2022/05/13 06:59:58;;;;;;;11.93;2.17;;;;;;;17.83;57.67;100938.66;5027567;28;20029;-81
2022/05/13 07:02:24;;;;;;;15.90;2.58;;;;;;;17.69;58.31;100939.88;5028114;28;20502;-81
2022/05/13 07:04:50;;;;;;;21.85;4.00;;;;;;;17.64;58.77;100945.63;5026935;28;20570;-84
2022/05/13 07:07:15;;;;;;;10.45;1.92;;;;;;;17.62;58.23;100954.72;5026014;28;20040;-82
2022/05/13 07:09:41;;;;;;;12.25;2.85;;;;;;;17.78;58.38;100955.00;5028461;28;20029;-83
2022/05/13 07:12:08;;;;;;;9.43;2.35;;;;;;;17.49;59.22;100964.72;5028900;28;20033;-82
2022/05/13 07:14:34;;;;;;;14.20;2.20;;;;;;;17.55;59.42;100966.84;5027477;28;20040;-82
2022/05/13 07:17:00;;;;;;;15.10;2.53;;;;;;;17.74;58.33;100974.03;5028601;28;20113;-81
2022/05/13 07:19:26;;;;;;;19.40;3.60;;;;;;;17.35;59.57;100980.06;5028748;28;20032;-83
2022/05/13 07:21:52;;;;;;;14.55;3.13;;;;;;;17.31;59.54;100978.66;5028963;28;20112;-81
2022/05/13 07:24:17;;;;;;;11.98;2.40;;;;;;;18.05;57.62;100982.78;5042306;28;20121;-83
2022/05/13 07:26:42;;;;;;;11.73;2.40;;;;;;;19.46;54.12;100973.25;5025004;28;20044;-82
2022/05/13 07:29:08;;;;;;;17.10;2.58;;;;;;;20.06;51.22;100976.22;5022690;28;20041;-83
2022/05/13 07:31:34;;;;;;;16.13;2.42;;;;;;;21.31;48.55;100972.44;5028545;28;20106;-83
2022/05/13 07:34:00;;;;;;;13.02;2.92;;;;;;;22.92;45.46;100981.00;5029026;28;20029;-83
2022/05/13 07:36:25;;;;;;;16.73;2.28;;;;;;;22.73;45.65;100976.88;5040169;28;20033;-84
2022/05/13 07:41:35;;;;;;;10.73;2.10;;;;;;;24.70;41.11;100972.28;5027428;28;20091;-83
2022/05/13 07:44:00;;;;;;;16.40;2.22;;;;;;;25.25;39.99;100979.09;5027563;28;20029;-83
2022/05/13 07:46:26;;;;;;;12.10;2.95;;;;;;;23.67;42.67;100978.91;5028441;28;20025;-84
2022/05/13 07:48:51;;;;;;;14.93;2.95;;;;;;;21.46;46.67;100991.41;5028330;28;20025;-84
2022/05/13 07:51:17;;;;;;;10.15;2.00;;;;;;;23.07;43.48;100978.50;5028507;28;20036;-85
2022/05/13 07:53:43;;;;;;;10.95;2.00;;;;;;;22.84;43.35;100990.91;5027400;28;20141;-85
2022/05/13 07:56:08;;;;;;;12.32;3.25;;;;;;;23.74;41.23;100985.22;5023966;28;20617;-84
2022/05/13 07:58:34;;;;;;;14.82;2.05;;;;;;;22.06;44.46;100973.50;5024739;28;20068;-83
2022/05/13 08:00:59;;;;;;;9.10;1.90;;;;;;;21.19;47.24;100989.75;5027832;28;20025;-83
2022/05/13 08:03:26;;;;;;;16.42;2.28;;;;;;;22.86;44.42;100984.34;5027434;28;20480;-85
2022/05/13 08:05:53;;;;;;;9.95;1.88;;;;;;;22.18;45.05;100994.41;5028543;28;20029;-85
2022/05/13 08:08:26;;;;;;;17.05;3.97;;;;;;;21.51;46.26;101004.28;5027462;28;20503;-83
2022/05/13 08:10:54;;;;;;;7.05;1.70;;;;;;;20.95;46.64;100985.97;5027783;28;20029;-83
2022/05/13 08:13:21;;;;;;;20.20;3.33;;;;;;;21.13;46.67;100990.38;5024047;28;20136;-83
2022/05/13 08:15:47;;;;;;;12.32;2.38;;;;;;;21.10;46.82;100996.03;5024955;28;20124;-85
2022/05/13 08:18:14;;;;;;;7.07;1.55;;;;;;;21.31;45.97;100988.47;5038730;28;20061;-83
2022/05/13 08:20:40;;;;;;;8.57;1.73;;;;;;;20.06;47.84;100996.72;5022287;28;20026;-83
2022/05/13 08:23:06;;;;;;;12.38;1.90;;;;;;;19.74;49.20;101001.56;5025555;28;20205;-83
2022/05/13 08:25:31;;;;;;;14.30;2.55;;;;;;;19.57;49.02;100999.69;5025279;28;20037;-83
2022/05/13 08:27:57;;;;;;;9.68;1.70;;;;;;;19.52;49.33;101001.94;5026924;28;20029;-84
2022/05/13 08:30:22;;;;;;;13.75;2.58;;;;;;;19.74;48.96;101006.88;5027852;28;20408;-83
2022/05/13 08:32:48;;;;;;;10.38;1.60;;;;;;;19.98;49.44;101002.81;5027663;28;20487;-84
2022/05/13 08:35:15;;;;;;;12.60;2.95;;;;;;;19.50;49.86;101018.06;5025695;28;20029;-82
2022/05/13 08:37:49;;;;;;;12.15;2.97;;;;;;;19.40;50.72;101028.75;5019602;28;20468;-82
2022/05/13 08:40:39;;;;;;;12.65;2.40;;;;;;;18.69;52.39;101039.00;5024289;28;20087;-83
2022/05/13 08:43:11;;;;;;;10.13;1.50;;;;;;;18.45;51.72;101029.63;5026871;28;20033;-82
2022/05/13 08:45:40;;;;;;;12.90;2.83;;;;;;;18.59;52.30;101026.53;5027117;28;20112;-82
2022/05/13 08:48:08;;;;;;;19.08;2.85;;;;;;;18.89;51.64;101018.56;5027202;28;20041;-82
2022/05/13 08:51:02;;;;;;;13.07;2.20;;;;;;;19.60;51.50;101023.34;5027761;28;20083;-83
2022/05/13 08:53:40;;;;;;;19.27;2.40;;;;;;;19.20;51.67;101024.50;5018854;28;20495;-82
2022/05/13 08:56:09;;;;;;;21.15;3.15;;;;;;;18.76;52.49;101038.31;5027826;28;20498;-82
2022/05/13 08:58:41;;;;;;;19.38;2.50;;;;;;;18.51;53.06;101031.72;5025280;28;20033;-82
2022/05/13 09:01:12;;;;;;;8.40;1.83;;;;;;;18.81;52.44;101037.91;5016352;28;20030;-82
2022/05/13 09:03:45;;;;;;;10.35;1.45;;;;;;;19.13;52.16;101026.88;5027606;28;20029;-82
2022/05/13 09:06:27;;;;;;;10.57;2.13;;;;;;;19.19;51.62;101031.66;5027882;28;20090;-82
2022/05/13 09:08:53;;;;;;;13.25;2.47;;;;;;;18.60;52.27;101027.38;5026049;28;20439;-82
2022/05/13 09:11:30;;;;;;;13.38;2.25;;;;;;;19.49;51.18;101039.50;5027198;28;20112;-82
2022/05/13 09:14:18;;;;;;;20.02;2.65;;;;;;;19.75;48.90;101029.88;5017906;28;20095;-83
2022/05/13 09:17:14;;;;;;;13.73;1.90;;;;;;;21.28;45.39;101036.84;5026511;28;20380;-83
2022/05/13 09:19:54;;;;;;;9.70;2.20;;;;;;;23.32;42.30;101031.97;5028083;28;20029;-82
2022/05/13 09:22:19;;;;;;;9.95;1.77;;;;;;;22.67;43.15;101011.50;5027139;28;20025;-83
2022/05/13 09:24:45;;;;;;;11.35;2.22;;;;;;;21.48;45.02;101037.50;5026965;28;20025;-82
2022/05/13 09:27:12;;;;;;;12.10;1.75;;;;;;;22.82;42.43;101027.72;5025931;28;20029;-82
2022/05/13 09:29:43;;;;;;;8.98;2.22;;;;;;;23.58;41.61;101039.78;5034157;28;20033;-83
2022/05/13 09:32:24;;;;;;;8.20;1.70;;;;;;;22.63;42.82;101050.31;5034755;28;20537;-83
2022/05/13 09:34:57;;;;;;;11.55;1.77;;;;;;;21.79;44.45;101048.47;5027473;28;20044;-83
2022/05/13 09:37:35;;;;;;;9.98;1.95;;;;;;;22.38;42.88;101061.84;5027071;28;20115;-83
2022/05/13 09:40:34;;;;;;;11.18;2.30;;;;;;;22.65;42.52;101050.97;5014484;28;20034;-83
2022/05/13 09:42:59;;;;;;;10.27;1.75;;;;;;;21.81;43.39;101052.84;5022389;28;20050;-83
2022/05/13 09:45:33;;;;;;;12.40;2.47;;;;;;;21.71;43.61;101047.63;5026802;28;20030;-83
2022/05/13 09:48:18;;;;;;;12.45;2.08;;;;;;;22.85;42.47;101049.63;5027568;28;20078;-83
2022/05/13 09:50:53;;;;;;;9.18;1.98;;;;;;;22.03;44.41;101056.72;5023070;28;20124;-83
2022/05/13 09:53:21;;;;;;;12.75;3.08;;;;;;;21.41;45.20;101046.28;5026288;28;20502;-83
2022/05/13 09:55:49;;;;;;;9.30;2.00;;;;;;;21.46;45.18;101068.03;5026406;28;20041;-83
2022/05/13 09:58:26;;;;;;;13.52;2.92;;;;;;;21.36;45.75;101060.94;5026204;28;20057;-84
2022/05/13 10:00:56;;;;;;;14.60;2.45;;;;;;;22.08;44.40;101055.25;5027288;28;20243;-83
2022/05/13 10:03:26;;;;;;;13.57;1.90;;;;;;;20.86;45.82;101064.31;5027448;28;20035;-84
2022/05/13 10:06:11;;;;;;;15.30;2.00;;;;;;;21.11;46.20;101056.44;5027088;28;20025;-84
2022/05/13 10:08:47;;;;;;;16.88;2.20;;;;;;;21.55;45.84;101059.06;5019422;28;20613;-84
2022/05/13 10:14:01;;;;;;;12.88;2.15;;;;;;;20.54;46.04;101070.19;5025681;28;20044;-84
2022/05/13 10:16:40;;;;;;;10.82;2.88;;;;;;;22.46;44.05;101060.19;5026592;28;20030;-83
2022/05/13 10:19:29;;;;;;;13.60;2.15;;;;;;;23.20;41.64;101052.94;5024022;28;20031;-83
2022/05/13 10:22:11;;;;;;;10.02;1.92;;;;;;;23.38;41.16;101068.81;5021204;28;20117;-84
2022/05/13 10:24:45;;;;;;;8.73;2.28;;;;;;;22.64;42.41;101066.19;5026543;28;20418;-84
2022/05/13 10:27:21;;;;;;;9.40;2.47;;;;;;;23.67;39.73;101067.38;5022689;28;20033;-84
2022/05/13 10:29:50;;;;;;;8.95;1.80;;;;;;;25.26;38.24;101061.38;5032983;28;20034;-84
2022/05/13 10:32:32;;;;;;;17.58;3.45;;;;;;;23.47;40.67;101064.25;5026905;28;20193;-84
2022/05/13 10:35:04;;;;;;;8.25;1.77;;;;;;;23.56;39.78;101056.03;5025672;28;20488;-84
2022/05/13 10:37:44;;;;;;;;;;;;;;;23.48;39.62;101052.50;5026279;28;20038;-84
2022/05/13 10:40:18;;;;;;;11.52;2.88;;;;;;;22.62;40.46;101051.31;5025479;28;20008;-84
2022/05/13 10:43:19;;;;;;;9.85;2.20;;;;;;;22.56;39.95;101050.97;5025530;28;20121;-84
2022/05/13 10:45:47;;;;;;;9.60;1.85;;;;;;;23.36;39.65;101055.59;5026346;28;20107;-84
2022/05/13 10:48:26;;;;;;;14.30;2.35;;;;;;;23.41;39.24;101056.91;5026591;28;20064;-84
2022/05/13 10:51:07;;;;;;;10.32;2.45;;;;;;;22.85;41.53;101057.66;5018882;28;20592;-84
2022/05/13 10:53:58;;;;;;;8.18;1.88;;;;;;;21.99;41.76;101048.19;5023823;28;20108;-84
2022/05/13 10:56:34;;;;;;;11.02;1.80;;;;;;;22.94;42.81;101045.94;5021170;28;20030;-84
2022/05/13 10:59:37;;;;;;;8.27;1.60;;;;;;;24.17;39.67;101039.31;5024410;28;20052;-84
2022/05/13 11:02:33;;;;;;;12.13;2.15;;;;;;;23.59;40.57;101044.09;5029818;28;20033;-84
2022/05/13 11:05:08;;;;;;;8.77;1.80;;;;;;;22.61;40.29;101049.63;5029669;28;20022;-84
2022/05/13 11:07:46;;;;;;;5.70;1.88;;;;;;;21.54;42.09;101046.69;5030275;28;20147;-84
2022/05/13 11:10:32;;;;;;;9.25;2.13;;;;;;;22.88;40.84;101043.94;5027755;28;20562;-84
2022/05/13 11:13:48;;;;;;;6.72;1.58;;;;;;;21.72;42.75;101055.47;5024697;28;20133;-84
2022/05/13 11:16:54;;;;;;;12.75;2.33;;;;;;;21.57;43.12;101057.09;5023488;28;20033;-83
2022/05/13 11:19:49;;;;;;;9.80;2.47;;;;;;;22.69;42.18;101057.66;5029434;28;20052;-83
2022/05/13 11:22:34;;;;;;;8.05;1.73;;;;;;;22.32;42.26;101050.97;5026211;28;20484;-84
2022/05/13 11:28:00;;;;;;;11.35;2.35;;;;;;;21.75;43.14;101047.13;5028791;28;20106;-84
2022/05/13 11:30:35;;;;;;;7.50;1.50;;;;;;;22.77;42.06;101038.94;5024481;28;20029;-84
2022/05/13 11:33:26;;;;;;;17.38;3.78;;;;;;;22.63;42.84;101047.63;5026074;28;20030;-84
2022/05/13 11:36:18;;;;;;;9.02;2.67;;;;;;;22.42;42.82;101040.13;5027749;28;20511;-84
2022/05/13 11:39:23;;;;;;;9.35;2.35;;;;;;;22.87;42.52;101044.13;5029671;28;20036;-84
2022/05/13 11:42:04;;;;;;;13.77;1.65;;;;;;;22.44;42.43;101032.75;5025003;28;20041;-84
2022/05/13 11:45:09;;;;;;;13.38;1.83;;;;;;;22.49;42.81;101050.00;5027952;28;20107;-84
2022/05/13 11:47:56;;;;;;;15.57;2.33;;;;;;;22.84;42.72;101053.31;5027146;28;20147;-84
2022/05/13 11:50:27;;;;;;;10.20;1.88;;;;;;;22.66;42.65;101047.31;5028890;28;20053;-84
2022/05/13 11:52:54;;;;;;;9.25;2.38;;;;;;;24.21;40.89;101037.09;5027487;28;20034;-84
2022/05/13 11:55:42;;;;;;;9.20;1.95;;;;;;;24.04;42.25;101039.88;5027368;28;20497;-84
2022/05/13 11:58:28;;;;;;;14.70;2.47;;;;;;;23.65;40.21;101040.72;5028552;28;20443;-84
2022/05/13 12:00:54;;;;;;;7.93;1.83;;;;;;;23.44;41.18;101041.34;5028474;28;20164;-84
2022/05/13 12:03:19;;;;;;;7.30;2.28;;;;;;;23.67;41.00;101037.88;5028950;28;20018;-84